Time;durP1;ratioP1;P1;durP2;ratioP2;P2;SDS_P1;SDS_P2;PMS_P1;PMS_P2;Temp;Humidity;BMP_temperature;BMP_pressure;BME280_temperature;BME280_humidity;BME280_pressure;Samples;Min_cycle;Max_cycle;Signal;HPM_P1;HPM_P2
2022/09/18 00:02:22;;;;;;;;;;;;;;;12.70;70.49;98642.25;4487357;31;33025;-62
2022/09/18 00:04:50;;;;;;;;;;;;;;;13.10;69.19;98643.59;4492038;31;34270;-62
2022/09/18 00:07:17;;;;;;;;;;;;;;;13.14;68.48;98641.44;4493628;31;35474;-62
2022/09/18 00:09:44;;;;;;;;;;;;;;;13.19;67.34;98631.91;4485135;31;34166;-62
2022/09/18 00:12:12;;;;;;;;;;;;;;;12.95;69.07;98631.72;4488255;31;33609;-63
2022/09/18 00:14:39;;;;;;;;;;;;;;;12.70;70.08;98636.91;4486203;31;33974;-64
2022/09/18 00:17:06;;;;;;;;;;;;;;;12.49;69.96;98634.56;4500338;31;34200;-63
2022/09/18 00:19:35;;;;;;;;;;;;;;;12.82;68.12;98627.59;4495344;31;34387;-63
2022/09/18 00:22:02;;;;;;;;;;;;;;;13.09;67.67;98633.00;4483726;31;33380;-63
2022/09/18 00:24:30;;;;;;;;;;;;;;;12.59;68.93;98632.62;4484202;31;34256;-63
2022/09/18 00:26:57;;;;;;;;;;;;;;;12.35;70.39;98632.38;4498603;31;34276;-63
2022/09/18 00:29:24;;;;;;;;;;;;;;;12.44;69.53;98634.16;4493878;31;35232;-63
2022/09/18 00:31:52;;;;;;;;;;;;;;;12.98;67.56;98634.09;4489792;31;32589;-63
2022/09/18 00:34:19;;;;;;;;;;;;;;;12.72;69.06;98637.59;4487169;31;32825;-64
2022/09/18 00:36:47;;;;;;;;;;;;;;;12.30;69.46;98637.37;4493160;31;35189;-63
2022/09/18 00:39:15;;;;;;;;;;;;;;;12.10;70.48;98628.59;4480802;31;34036;-62
2022/09/18 00:41:43;;;;;;;;;;;;;;;12.19;70.13;98629.53;4497632;31;33598;-63
2022/09/18 00:44:29;;;;;;;;;;;;;;;12.52;68.56;98630.69;4500058;31;34068;-63
2022/09/18 00:47:06;;;;;;;;;;;;;;;12.21;69.45;98631.09;4491147;31;33997;-63
2022/09/18 00:49:33;;;;;;;;;;;;;;;12.69;66.91;98632.53;4473581;31;34120;-62
2022/09/18 00:52:00;;;;;;;;;;;;;;;12.26;67.96;98628.81;4483451;31;32201;-62
2022/09/18 00:54:29;;;;;;;;;;;;;;;12.62;67.38;98623.41;4483428;31;33987;-62
2022/09/18 00:56:58;;;;;;;;;;;;;;;12.78;65.60;98628.09;4493378;31;34376;-62
2022/09/18 00:59:30;;;;;;;;;;;;;;;12.24;67.79;98636.16;4482482;31;34247;-63
2022/09/18 01:01:58;;;;;;;;;;;;;;;12.59;66.44;98637.16;4491221;31;33489;-62
2022/09/18 01:04:26;;;;;;;;;;;;;;;12.88;65.32;98646.78;4483263;31;35282;-62
2022/09/18 01:07:09;;;;;;;;;;;;;;;11.81;67.83;98648.41;4485224;31;34842;-62
2022/09/18 01:09:42;;;;;;;;;;;;;;;12.60;64.91;98646.88;4485516;31;34493;-62
2022/09/18 01:12:18;;;;;;;;;;;;;;;12.66;65.12;98654.31;4486207;31;32809;-63
2022/09/18 01:14:49;;;;;;;;;;;;;;;11.99;66.56;98652.97;4493091;31;32409;-62
2022/09/18 01:17:20;;;;;;;;;;;;;;;12.43;66.02;98656.62;4487727;31;33707;-62
2022/09/18 01:19:50;;;;;;;;;;;;;;;12.70;65.20;98666.44;4473142;31;34025;-62
2022/09/18 01:22:29;;;;;;;;;;;;;;;12.34;64.66;98663.75;4498963;31;33034;-62
2022/09/18 01:25:04;;;;;;;;;;;;;;;12.25;65.06;98661.97;4470071;31;34836;-62
2022/09/18 01:27:43;;;;;;;;;;;;;;;12.63;63.43;98676.09;4481586;31;34467;-62
2022/09/18 01:30:11;;;;;;;;;;;;;;;12.73;63.33;98684.91;4478314;31;33968;-63
2022/09/18 01:32:47;;;;;;;;;;;;;;;13.00;62.89;98681.28;4478212;32;31862;-62
2022/09/18 01:35:17;;;;;;;;;;;;;;;13.16;61.65;98687.75;4485297;31;35265;-62
2022/09/18 01:38:12;;;;;;;;;;;;;;;13.37;59.96;98700.91;4487990;31;34246;-62
2022/09/18 01:40:46;;;;;;;;;;;;;;;13.17;60.22;98706.44;4483987;31;35237;-62
2022/09/18 01:43:14;;;;;;;;;;;;;;;12.51;61.17;98706.84;4486081;31;34310;-62
2022/09/18 01:45:48;;;;;;;;;;;;;;;13.02;60.16;98707.97;4482476;31;35281;-62
2022/09/18 01:48:22;;;;;;;;;;;;;;;12.79;60.65;98729.09;4480496;31;34010;-62
2022/09/18 01:50:51;;;;;;;;;;;;;;;13.05;59.92;98731.84;4488677;31;32739;-62
2022/09/18 01:53:23;;;;;;;;;;;;;;;13.30;59.56;98734.78;4487714;31;33201;-62
2022/09/18 01:56:08;;;;;;;;;;;;;;;13.03;58.89;98733.84;4480433;31;34108;-62
2022/09/18 01:58:36;;;;;;;;;;;;;;;12.71;60.12;98739.75;4494611;31;35022;-62
2022/09/18 02:01:06;;;;;;;;;;;;;;;12.90;60.44;98744.13;4485926;31;35124;-62
2022/09/18 02:03:41;;;;;;;;;;;;;;;12.92;60.08;98752.91;4486987;31;33431;-62
2022/09/18 02:06:11;;;;;;;;;;;;;;;13.34;58.53;98747.72;4475105;31;33687;-62
2022/09/18 02:08:42;;;;;;;;;;;;;;;13.28;59.52;98751.87;4476789;31;35103;-63
2022/09/18 02:11:10;;;;;;;;;;;;;;;13.19;57.31;98754.62;4484002;31;34343;-62
2022/09/18 02:13:43;;;;;;;;;;;;;;;13.49;56.81;98761.47;4481543;31;33171;-62
2022/09/18 02:16:12;;;;;;;;;;;;;;;13.18;57.73;98758.31;4484602;31;33885;-62
2022/09/18 02:18:41;;;;;;;;;;;;;;;12.87;58.68;98755.19;4496549;31;33064;-62
2022/09/18 02:21:09;;;;;;;;;;;;;;;13.19;57.45;98765.38;4478629;32;34228;-62
2022/09/18 02:23:37;;;;;;;;;;;;;;;13.32;56.45;98765.84;4485191;31;32205;-63
2022/09/18 02:26:06;;;;;;;;;;;;;;;13.59;56.53;98778.31;4470468;32;34201;-61
2022/09/18 02:28:33;;;;;;;;;;;;;;;13.40;58.28;98779.34;4479120;31;34294;-63
2022/09/18 02:31:01;;;;;;;;;;;;;;;13.85;55.69;98780.19;4477637;31;34218;-61
2022/09/18 02:33:31;;;;;;;;;;;;;;;13.96;54.68;98782.56;4498173;31;31933;-61
2022/09/18 02:36:15;;;;;;;;;;;;;;;13.86;55.59;98787.22;4501226;31;34317;-61
2022/09/18 02:38:52;;;;;;;;;;;;;;;13.98;54.89;98791.34;4486638;31;33298;-61
2022/09/18 02:41:26;;;;;;;;;;;;;;;13.59;55.24;98789.09;4484497;31;34863;-61
2022/09/18 02:43:57;;;;;;;;;;;;;;;13.62;55.32;98796.00;4482717;31;34476;-61
2022/09/18 02:46:26;;;;;;;;;;;;;;;13.90;56.15;98802.91;4484744;32;32801;-61
2022/09/18 02:48:53;;;;;;;;;;;;;;;14.09;55.13;98807.22;4493708;31;34155;-61
2022/09/18 02:51:31;;;;;;;;;;;;;;;14.05;54.82;98810.38;4491308;31;33239;-61
2022/09/18 02:54:12;;;;;;;;;;;;;;;13.80;54.38;98799.47;4481964;31;33964;-61
2022/09/18 02:56:43;;;;;;;;;;;;;;;14.19;53.70;98799.88;4481764;32;34815;-62
2022/09/18 02:59:11;;;;;;;;;;;;;;;13.98;53.07;98802.94;4494257;31;33526;-62
2022/09/18 03:01:40;;;;;;;;;;;;;;;14.42;52.60;98800.12;4485621;32;34358;-62
2022/09/18 03:04:12;;;;;;;;;;;;;;;13.87;55.08;98803.22;4480190;31;32929;-62
2022/09/18 03:06:41;;;;;;;;;;;;;;;13.84;55.27;98808.09;4485503;31;35157;-63
2022/09/18 03:09:08;;;;;;;;;;;;;;;13.51;55.82;98811.37;4498714;31;34347;-63
2022/09/18 03:11:36;;;;;;;;;;;;;;;13.64;55.47;98810.97;4495740;31;33942;-64
2022/09/18 03:14:03;;;;;;;;;;;;;;;14.25;53.73;98810.97;4495106;31;32904;-63
2022/09/18 03:16:30;;;;;;;;;;;;;;;13.87;54.32;98821.22;4492525;31;32732;-65
2022/09/18 03:18:58;;;;;;;;;;;;;;;14.16;52.61;98824.41;4485236;31;34274;-63
2022/09/18 03:21:26;;;;;;;;;;;;;;;14.39;53.89;98826.53;4485279;32;32962;-63
2022/09/18 03:23:53;;;;;;;;;;;;;;;14.64;53.16;98825.66;4482254;31;31521;-64
2022/09/18 03:26:21;;;;;;;;;;;;;;;14.67;52.31;98827.19;4488337;31;35742;-63
2022/09/18 03:28:49;;;;;;;;;;;;;;;14.45;52.60;98826.75;4485276;31;34036;-61
2022/09/18 03:31:17;;;;;;;;;;;;;;;13.72;54.98;98837.91;4485336;31;33894;-62
2022/09/18 03:33:45;;;;;;;;;;;;;;;14.45;52.67;98831.28;4495802;31;32115;-62
2022/09/18 03:36:13;;;;;;;;;;;;;;;14.60;51.70;98837.75;4494005;31;34285;-62
2022/09/18 03:38:41;;;;;;;;;;;;;;;14.66;52.58;98830.88;4493174;31;33762;-62
2022/09/18 03:41:08;;;;;;;;;;;;;;;14.84;51.13;98833.47;4486424;31;34373;-62
2022/09/18 03:43:39;;;;;;;;;;;;;;;15.08;51.62;98836.22;4486946;31;33332;-63
2022/09/18 03:46:08;;;;;;;;;;;;;;;13.89;54.27;98846.09;4494111;31;35200;-62
2022/09/18 03:48:36;;;;;;;;;;;;;;;14.28;52.95;98846.50;4488724;31;34438;-63
2022/09/18 03:51:03;;;;;;;;;;;;;;;14.54;52.54;98848.31;4486739;31;34995;-62
2022/09/18 03:53:31;;;;;;;;;;;;;;;14.89;50.80;98853.53;4489035;31;33449;-62
2022/09/18 03:55:59;;;;;;;;;;;;;;;14.65;50.63;98848.91;4487206;31;35007;-63
2022/09/18 03:58:27;;;;;;;;;;;;;;;14.62;52.27;98856.47;4484469;31;32542;-64
2022/09/18 04:00:57;;;;;;;;;;;;;;;15.00;50.46;98859.63;4486021;31;32884;-63
2022/09/18 04:03:25;;;;;;;;;;;;;;;15.18;50.90;98851.38;4489877;31;33418;-64
2022/09/18 04:05:54;;;;;;;;;;;;;;;15.04;51.19;98861.81;4497901;31;34932;-64
2022/09/18 04:08:23;;;;;;;;;;;;;;;15.05;50.39;98863.47;4493748;31;33012;-63
2022/09/18 04:10:54;;;;;;;;;;;;;;;14.39;52.12;98864.22;4471158;31;33650;-63
2022/09/18 04:13:23;;;;;;;;;;;;;;;14.64;51.90;98866.06;4496190;31;31879;-64
2022/09/18 04:15:50;;;;;;;;;;;;;;;14.24;53.12;98869.34;4495366;31;34360;-64
2022/09/18 04:18:18;;;;;;;;;;;;;;;14.07;53.73;98870.28;4500581;31;34159;-63
2022/09/18 04:20:45;;;;;;;;;;;;;;;13.60;54.48;98871.41;4485269;31;35405;-64
2022/09/18 04:23:13;;;;;;;;;;;;;;;13.30;55.54;98869.16;4500313;31;34451;-63
2022/09/18 04:25:41;;;;;;;;;;;;;;;13.79;53.98;98875.78;4498652;31;34135;-64
2022/09/18 04:28:09;;;;;;;;;;;;;;;14.02;52.97;98869.88;4497944;31;34711;-64
2022/09/18 04:30:37;;;;;;;;;;;;;;;13.33;55.08;98867.00;4491167;31;35491;-64
2022/09/18 04:33:06;;;;;;;;;;;;;;;12.79;57.77;98879.47;4491113;31;32207;-64
2022/09/18 04:35:33;;;;;;;;;;;;;;;12.32;58.45;98866.97;4483803;31;34038;-64
2022/09/18 04:38:01;;;;;;;;;;;;;;;13.02;58.04;98870.00;4500076;31;34841;-64
2022/09/18 04:40:29;;;;;;;;;;;;;;;12.76;56.50;98880.63;4495695;31;34196;-63
2022/09/18 04:42:56;;;;;;;;;;;;;;;12.53;56.75;98877.47;4496761;31;34381;-64
2022/09/18 04:45:25;;;;;;;;;;;;;;;13.28;55.38;98880.03;4502270;31;35277;-64
2022/09/18 04:47:52;;;;;;;;;;;;;;;12.36;59.06;98880.97;4501709;31;34126;-65
2022/09/18 04:50:19;;;;;;;;;;;;;;;12.19;58.17;98879.87;4497622;31;35184;-64
2022/09/18 04:53:01;;;;;;;;;;;;;;;13.10;55.17;98893.44;4491510;31;32354;-63
2022/09/18 04:55:30;;;;;;;;;;;;;;;13.11;55.01;98892.44;4487048;31;34101;-63
2022/09/18 04:57:58;;;;;;;;;;;;;;;13.36;55.42;98898.94;4486617;31;32825;-64
2022/09/18 05:00:27;;;;;;;;;;;;;;;13.24;55.05;98901.00;4488425;31;33903;-64
2022/09/18 05:02:56;;;;;;;;;;;;;;;12.77;57.37;98902.94;4490178;31;33100;-63
2022/09/18 05:05:25;;;;;;;;;;;;;;;13.34;53.82;98905.47;4494477;31;34076;-63
2022/09/18 05:07:52;;;;;;;;;;;;;;;13.37;54.53;98902.47;4487999;31;33706;-63
2022/09/18 05:10:20;;;;;;;;;;;;;;;12.81;55.37;98897.13;4488091;31;32871;-62
2022/09/18 05:12:48;;;;;;;;;;;;;;;13.22;54.04;98899.41;4492282;31;33499;-61
2022/09/18 05:15:17;;;;;;;;;;;;;;;13.01;54.46;98907.78;4494930;31;34005;-62
2022/09/18 05:17:45;;;;;;;;;;;;;;;13.30;54.26;98910.28;4495905;31;34527;-62
2022/09/18 05:20:12;;;;;;;;;;;;;;;13.22;54.43;98907.47;4488746;31;35068;-62
2022/09/18 05:22:45;;;;;;;;;;;;;;;13.67;52.80;98911.97;4485753;31;33734;-62
2022/09/18 05:25:13;;;;;;;;;;;;;;;14.39;50.25;98915.38;4498805;31;34389;-63
2022/09/18 05:27:40;;;;;;;;;;;;;;;14.14;50.68;98919.75;4485904;31;32657;-64
2022/09/18 05:30:08;;;;;;;;;;;;;;;14.07;51.17;98916.00;4494021;31;33956;-64
2022/09/18 05:32:36;;;;;;;;;;;;;;;14.06;52.96;98914.31;4499893;31;33130;-63
2022/09/18 05:35:04;;;;;;;;;;;;;;;13.55;52.74;98916.75;4485975;31;33933;-64
2022/09/18 05:37:31;;;;;;;;;;;;;;;14.49;50.81;98916.09;4490858;31;35258;-61
2022/09/18 05:39:59;;;;;;;;;;;;;;;14.56;50.45;98910.97;4487874;31;34159;-61
2022/09/18 05:42:26;;;;;;;;;;;;;;;13.95;52.73;98915.41;4498255;31;32153;-62
2022/09/18 05:44:56;;;;;;;;;;;;;;;14.47;51.59;98925.34;4493065;31;35018;-62
2022/09/18 05:47:31;;;;;;;;;;;;;;;14.06;53.97;98922.38;4484904;31;33969;-62
2022/09/18 05:49:59;;;;;;;;;;;;;;;14.61;51.55;98922.94;4485893;31;34703;-61
2022/09/18 05:52:26;;;;;;;;;;;;;;;14.38;52.14;98919.94;4492975;31;33240;-61
2022/09/18 05:54:53;;;;;;;;;;;;;;;14.03;52.88;98915.47;4500809;31;35125;-62
2022/09/18 05:57:21;;;;;;;;;;;;;;;13.57;54.70;98917.44;4500901;31;33063;-62
2022/09/18 05:59:48;;;;;;;;;;;;;;;13.36;56.56;98914.22;4497244;31;34957;-62
2022/09/18 06:02:16;;;;;;;;;;;;;;;13.33;55.96;98918.06;4497919;31;34372;-62
2022/09/18 06:04:45;;;;;;;;;;;;;;;13.38;55.82;98914.91;4493159;31;33813;-62
2022/09/18 06:07:15;;;;;;;;;;;;;;;13.81;54.33;98914.13;4495051;31;35496;-61
2022/09/18 06:09:42;;;;;;;;;;;;;;;13.94;54.39;98913.72;4493046;31;34439;-61
2022/09/18 06:12:11;;;;;;;;;;;;;;;13.90;56.85;98923.97;4485430;31;33811;-61
2022/09/18 06:14:38;;;;;;;;;;;;;;;13.34;55.56;98925.09;4485195;31;32775;-61
2022/09/18 06:17:05;;;;;;;;;;;;;;;14.18;53.67;98930.03;4486177;31;34052;-62
2022/09/18 06:19:34;;;;;;;;;;;;;;;13.72;56.45;98931.19;4490997;31;32638;-62
2022/09/18 06:22:01;;;;;;;;;;;;;;;14.07;57.68;98929.47;4500340;31;32516;-62
2022/09/18 06:24:28;;;;;;;;;;;;;;;14.63;53.25;98934.37;4499301;31;34011;-62
2022/09/18 06:26:56;;;;;;;;;;;;;;;14.96;51.54;98942.63;4498039;31;34181;-61
2022/09/18 06:29:23;;;;;;;;;;;;;;;14.75;52.23;98952.97;4501338;31;34339;-61
2022/09/18 06:31:52;;;;;;;;;;;;;;;14.16;54.78;98956.28;4501526;31;32163;-62
2022/09/18 06:34:20;;;;;;;;;;;;;;;14.98;52.58;98943.31;4486152;31;35319;-62
2022/09/18 06:36:47;;;;;;;;;;;;;;;14.59;52.43;98943.78;4488171;31;32979;-62
2022/09/18 06:39:14;;;;;;;;;;;;;;;14.64;52.82;98951.41;4487689;31;33850;-62
2022/09/18 06:41:42;;;;;;;;;;;;;;;14.93;51.62;98944.78;4501580;31;32064;-61
2022/09/18 06:44:16;;;;;;;;;;;;;;;14.63;52.71;98941.63;4501803;31;34674;-62
2022/09/18 06:46:43;;;;;;;;;;;;;;;14.85;51.87;98940.22;4494448;31;34319;-61
2022/09/18 06:49:12;;;;;;;;;;;;;;;15.04;51.59;98942.66;4496782;31;34278;-62
2022/09/18 06:51:40;;;;;;;;;;;;;;;14.62;52.59;98932.69;4493343;31;31989;-61
2022/09/18 06:54:08;;;;;;;;;;;;;;;14.61;53.29;98931.03;4486635;31;32742;-62
2022/09/18 06:56:36;;;;;;;;;;;;;;;14.59;52.04;98937.56;4487835;31;34291;-61
2022/09/18 06:59:05;;;;;;;;;;;;;;;14.30;53.06;98932.47;4484659;31;34240;-62
2022/09/18 07:01:34;;;;;;;;;;;;;;;14.17;52.70;98933.75;4485808;31;33454;-61
2022/09/18 07:04:02;;;;;;;;;;;;;;;14.54;52.10;98934.50;4485706;31;32619;-62
2022/09/18 07:06:30;;;;;;;;;;;;;;;14.67;53.09;98935.78;4485360;31;34304;-62
2022/09/18 07:08:57;;;;;;;;;;;;;;;14.30;52.71;98932.47;4492902;31;35193;-62
2022/09/18 07:11:25;;;;;;;;;;;;;;;14.40;52.16;98946.66;4494374;31;33617;-62
2022/09/18 07:13:53;;;;;;;;;;;;;;;13.92;52.06;98939.94;4485380;31;32785;-61
2022/09/18 07:16:20;;;;;;;;;;;;;;;13.99;52.00;98954.44;4488753;31;33991;-62
2022/09/18 07:18:48;;;;;;;;;;;;;;;13.71;51.48;98948.34;4485636;31;34173;-62
2022/09/18 07:21:19;;;;;;;;;;;;;;;13.83;51.88;98949.75;4473658;32;34840;-62
2022/09/18 07:23:47;;;;;;;;;;;;;;;14.64;50.14;98954.94;4484845;32;34155;-62
2022/09/18 07:26:14;;;;;;;;;;;;;;;13.86;51.60;98960.22;4485001;31;32894;-62
2022/09/18 07:28:45;;;;;;;;;;;;;;;13.75;52.30;98958.63;4483935;31;33296;-62
2022/09/18 07:31:13;;;;;;;;;;;;;;;13.76;50.41;98959.47;4486861;31;32272;-62
2022/09/18 07:33:42;;;;;;;;;;;;;;;13.82;50.83;98963.38;4471368;31;832012;-62
2022/09/18 07:36:14;;;;;;;;;;;;;;;13.57;49.98;98976.59;4478079;31;34182;-62
2022/09/18 07:38:42;;;;;;;;;;;;;;;13.45;51.47;98983.16;4480217;31;34418;-61
2022/09/18 07:41:10;;;;;;;;;;;;;;;13.12;51.81;98974.72;4488408;31;32647;-62
2022/09/18 07:43:39;;;;;;;;;;;;;;;13.65;50.52;98978.53;4485614;31;33910;-62
2022/09/18 07:46:07;;;;;;;;;;;;;;;13.65;49.81;98974.00;4496153;31;35425;-62
2022/09/18 07:48:34;;;;;;;;;;;;;;;14.06;49.26;98979.75;4475830;32;33126;-62
2022/09/18 07:51:03;;;;;;;;;;;;;;;14.39;49.61;98985.38;4484777;32;33653;-61
2022/09/18 07:53:31;;;;;;;;;;;;;;;13.84;49.17;98991.81;4484451;32;34330;-62
2022/09/18 07:55:58;;;;;;;;;;;;;;;13.91;48.59;98982.13;4484711;31;33544;-62
2022/09/18 07:58:26;;;;;;;;;;;;;;;14.00;48.85;98980.37;4491867;31;34549;-62
2022/09/18 08:00:54;;;;;;;;;;;;;;;13.99;49.10;98986.72;4491501;31;33234;-62
2022/09/18 08:03:21;;;;;;;;;;;;;;;13.80;50.42;99001.19;4490770;31;33762;-62
2022/09/18 08:05:50;;;;;;;;;;;;;;;13.98;50.48;98985.03;4474185;32;32863;-62
2022/09/18 08:08:23;;;;;;;;;;;;;;;13.98;49.37;98993.97;4481917;31;32859;-62
2022/09/18 08:10:51;;;;;;;;;;;;;;;13.94;50.48;98989.91;4483191;31;33986;-62
2022/09/18 08:13:18;;;;;;;;;;;;;;;14.22;49.32;99000.53;4486084;31;33963;-62
2022/09/18 08:15:46;;;;;;;;;;;;;;;14.40;51.06;99005.91;4497189;31;32957;-62
2022/09/18 08:18:16;;;;;;;;;;;;;;;14.52;50.09;99015.44;4480047;32;32552;-62
2022/09/18 08:20:44;;;;;;;;;;;;;;;14.57;48.77;99010.41;4470801;31;33318;-62
2022/09/18 08:23:14;;;;;;;;;;;;;;;14.58;48.42;99012.13;4475967;31;34819;-62
2022/09/18 08:25:46;;;;;;;;;;;;;;;14.91;48.94;99015.84;4496357;31;34322;-62
2022/09/18 08:28:15;;;;;;;;;;;;;;;14.53;49.92;99014.44;4488596;31;35194;-62
2022/09/18 08:30:44;;;;;;;;;;;;;;;14.62;47.78;99005.41;4484187;31;34850;-62
2022/09/18 08:33:11;;;;;;;;;;;;;;;14.75;47.75;99004.16;4477560;31;32696;-62
2022/09/18 08:35:39;;;;;;;;;;;;;;;14.79;47.94;99013.59;4500207;31;35417;-62
2022/09/18 08:38:10;;;;;;;;;;;;;;;14.71;48.67;99009.00;4487589;31;34446;-62
2022/09/18 08:40:48;;;;;;;;;;;;;;;14.97;47.87;99009.00;4480309;31;33687;-62
2022/09/18 08:43:20;;;;;;;;;;;;;;;14.44;48.01;99001.87;4484070;31;34251;-62
2022/09/18 08:46:12;;;;;;;;;;;;;;;14.40;47.27;99003.22;4484765;31;34344;-62
2022/09/18 08:48:56;;;;;;;;;;;;;;;15.10;46.54;99013.94;4494015;31;34016;-62
2022/09/18 08:51:46;;;;;;;;;;;;;;;14.74;47.54;99024.00;4485720;31;33575;-62
2022/09/18 08:54:19;;;;;;;;;;;;;;;15.12;47.03;99028.09;4483627;31;34306;-62
2022/09/18 08:56:48;;;;;;;;;;;;;;;15.05;47.48;99025.19;4480377;31;34359;-61
2022/09/18 08:59:20;;;;;;;;;;;;;;;15.08;46.33;99024.03;4495297;31;32899;-61
2022/09/18 09:02:02;;;;;;;;;;;;;;;14.58;46.76;99033.66;4474834;31;33143;-62
2022/09/18 09:04:30;;;;;;;;;;;;;;;14.26;47.46;99036.09;4498332;31;32812;-62
2022/09/18 09:07:02;;;;;;;;;;;;;;;14.19;47.72;99027.78;4490306;31;33411;-62
2022/09/18 09:09:32;;;;;;;;;;;;;;;14.87;46.83;99038.75;4483534;31;34890;-62
2022/09/18 09:12:04;;;;;;;;;;;;;;;14.80;47.31;99045.78;4490344;31;33364;-62
2022/09/18 09:14:35;;;;;;;;;;;;;;;14.77;46.51;99023.69;4482963;31;33577;-62
2022/09/18 09:17:23;;;;;;;;;;;;;;;13.81;48.61;99045.09;4483984;31;34501;-62
2022/09/18 09:19:53;;;;;;;;;;;;;;;14.10;49.01;99043.00;4483366;31;33866;-62
2022/09/18 09:22:28;;;;;;;;;;;;;;;14.38;49.08;99035.69;4483159;31;31263;-62
2022/09/18 09:24:58;;;;;;;;;;;;;;;14.48;48.71;99032.91;4459110;32;33704;-62
2022/09/18 09:27:32;;;;;;;;;;;;;;;14.70;47.15;99028.84;4499250;31;33372;-62
2022/09/18 09:30:05;;;;;;;;;;;;;;;14.63;48.29;99025.09;4489709;31;34338;-62
2022/09/18 09:32:48;;;;;;;;;;;;;;;14.19;48.48;99035.88;4491537;31;32266;-62
2022/09/18 09:35:28;;;;;;;;;;;;;;;14.39;48.76;99034.66;4479036;31;33827;-62
2022/09/18 09:38:30;;;;;;;;;;;;;;;14.41;48.63;99032.69;4473399;32;34226;-62
2022/09/18 09:40:59;;;;;;;;;;;;;;;14.60;47.90;99026.25;4484088;31;32563;-62
2022/09/18 09:43:38;;;;;;;;;;;;;;;15.06;47.79;99034.13;4473899;31;31902;-61
2022/09/18 09:46:41;;;;;;;;;;;;;;;14.59;47.70;99023.75;4485952;31;33736;-62
2022/09/18 09:49:13;;;;;;;;;;;;;;;14.76;48.12;99032.75;4425207;32;34574;-62
2022/09/18 09:51:43;;;;;;;;;;;;;;;14.53;48.02;99041.37;4476336;31;33826;-62
2022/09/18 09:54:11;;;;;;;;;;;;;;;14.69;48.55;99043.31;4501171;31;32769;-62
2022/09/18 09:56:58;;;;;;;;;;;;;;;14.70;48.13;99057.63;4486830;31;32575;-62
2022/09/18 09:59:46;;;;;;;;;;;;;;;15.05;48.59;99052.12;4496945;31;33779;-62
2022/09/18 10:02:25;;;;;;;;;;;;;;;14.76;49.01;99046.22;4476040;31;35146;-62
2022/09/18 10:05:13;;;;;;;;;;;;;;;15.06;48.08;99055.69;4486644;31;32629;-62
2022/09/18 10:07:48;;;;;;;;;;;;;;;14.77;48.59;99056.87;4488135;31;34847;-62
2022/09/18 10:10:22;;;;;;;;;;;;;;;14.89;49.62;99065.50;4474258;31;33135;-62
2022/09/18 10:12:51;;;;;;;;;;;;;;;14.65;48.52;99063.50;4482853;31;32912;-62
2022/09/18 10:15:27;;;;;;;;;;;;;;;14.31;48.11;99069.59;4485771;31;33676;-62
2022/09/18 10:17:56;;;;;;;;;;;;;;;14.30;47.38;99067.06;4451914;32;34176;-62
2022/09/18 10:20:26;;;;;;;;;;;;;;;14.02;48.77;99075.22;4485549;31;32991;-62
2022/09/18 10:22:54;;;;;;;;;;;;;;;14.26;49.01;99069.22;4493394;31;34235;-62
2022/09/18 10:25:24;;;;;;;;;;;;;;;14.65;46.62;99061.66;4478689;31;33097;-62
2022/09/18 10:27:52;;;;;;;;;;;;;;;14.98;46.32;99053.78;4487305;31;33866;-62
2022/09/18 10:30:20;;;;;;;;;;;;;;;14.66;46.57;99046.34;4481015;31;35160;-62
2022/09/18 10:32:49;;;;;;;;;;;;;;;14.50;47.19;99068.56;4487750;31;35309;-62
2022/09/18 10:35:25;;;;;;;;;;;;;;;14.87;47.05;99056.75;4470626;32;32718;-62
2022/09/18 10:37:56;;;;;;;;;;;;;;;14.63;46.84;99069.03;4474861;32;35268;-62
2022/09/18 10:40:32;;;;;;;;;;;;;;;15.05;46.36;99057.53;4469060;31;32629;-62
2022/09/18 10:43:02;;;;;;;;;;;;;;;14.93;46.49;99058.81;4488498;31;32894;-62
2022/09/18 10:45:31;;;;;;;;;;;;;;;15.29;45.44;99064.91;4470715;32;33314;-62
2022/09/18 10:48:06;;;;;;;;;;;;;;;15.24;45.31;99061.00;4491477;31;34113;-62
2022/09/18 10:50:36;;;;;;;;;;;;;;;15.30;45.74;99060.34;4484986;32;34092;-63
2022/09/18 10:53:22;;;;;;;;;;;;;;;15.49;45.73;99059.25;4476871;31;34044;-62
2022/09/18 10:55:53;;;;;;;;;;;;;;;15.33;45.70;99052.78;4497734;31;33486;-62
2022/09/18 10:58:29;;;;;;;;;;;;;;;15.60;45.16;99057.13;4484778;31;35272;-62
2022/09/18 11:01:04;;;;;;;;;;;;;;;15.36;44.86;99060.53;4468353;31;33055;-62
2022/09/18 11:03:37;;;;;;;;;;;;;;;15.42;45.78;99053.66;4490914;31;34095;-62
2022/09/18 11:06:23;;;;;;;;;;;;;;;15.78;44.77;99059.72;4475561;31;32670;-62
2022/09/18 11:08:52;;;;;;;;;;;;;;;15.82;44.56;99065.63;4479776;31;33604;-62
2022/09/18 11:11:21;;;;;;;;;;;;;;;15.62;45.89;99065.03;4483524;31;32990;-62
2022/09/18 11:13:58;;;;;;;;;;;;;;;15.71;44.87;99058.69;4470383;31;34772;-62
2022/09/18 11:16:28;;;;;;;;;;;;;;;15.84;44.72;99069.00;4490916;31;33317;-62
2022/09/18 11:19:01;;;;;;;;;;;;;;;15.71;44.14;99071.34;4485248;31;35245;-62
2022/09/18 11:21:45;;;;;;;;;;;;;;;15.83;44.47;99072.72;4488296;31;36001;-62
2022/09/18 11:24:23;;;;;;;;;;;;;;;15.73;45.04;99075.56;4485021;31;34142;-62
2022/09/18 11:26:54;;;;;;;;;;;;;;;16.11;43.97;99065.16;4488395;31;32096;-62
2022/09/18 11:29:29;;;;;;;;;;;;;;;15.78;44.25;99061.56;4486903;31;32877;-62
2022/09/18 11:31:57;;;;;;;;;;;;;;;16.02;44.20;99063.50;4477645;31;33066;-62
2022/09/18 11:34:27;;;;;;;;;;;;;;;16.14;43.72;99061.28;4481912;31;32198;-62
2022/09/18 11:36:59;;;;;;;;;;;;;;;15.94;43.15;99064.31;4496583;31;33083;-62
2022/09/18 11:39:28;;;;;;;;;;;;;;;15.91;43.93;99051.13;4462651;31;33854;-62
2022/09/18 11:41:55;;;;;;;;;;;;;;;16.20;42.63;99063.34;4493606;31;34106;-62
2022/09/18 11:44:27;;;;;;;;;;;;;;;16.16;43.46;99054.72;4478043;31;32419;-62
2022/09/18 11:47:11;;;;;;;;;;;;;;;16.34;43.28;99054.59;4475137;31;32018;-62
2022/09/18 11:49:50;;;;;;;;;;;;;;;16.25;42.53;99052.88;4474496;32;32891;-62
2022/09/18 11:52:19;;;;;;;;;;;;;;;16.60;40.88;99062.50;4481225;31;33114;-63
2022/09/18 11:55:14;;;;;;;;;;;;;;;16.61;41.09;99050.69;4487614;31;35882;-62
2022/09/18 11:57:44;;;;;;;;;;;;;;;16.69;42.29;99050.69;4462934;31;33220;-62
2022/09/18 12:00:13;;;;;;;;;;;;;;;16.80;41.45;99054.91;4471824;31;32836;-61
2022/09/18 12:02:43;;;;;;;;;;;;;;;16.52;41.66;99049.84;4472095;31;33835;-62
2022/09/18 12:05:33;;;;;;;;;;;;;;;16.91;40.41;99049.13;4487536;31;34369;-63
2022/09/18 12:08:05;;;;;;;;;;;;;;;16.64;41.66;99050.34;4466895;31;32280;-62
2022/09/18 12:10:52;;;;;;;;;;;;;;;16.96;41.37;99043.22;4477535;32;33956;-62
2022/09/18 12:13:40;;;;;;;;;;;;;;;17.30;40.01;99042.94;4473966;31;34211;-62
2022/09/18 12:16:28;;;;;;;;;;;;;;;17.30;39.61;99042.09;4498431;31;34086;-62
2022/09/18 12:19:04;;;;;;;;;;;;;;;17.58;40.04;99040.63;4478886;31;32841;-62
2022/09/18 12:21:56;;;;;;;;;;;;;;;18.29;38.10;99029.72;4497920;31;32781;-62
2022/09/18 12:24:24;;;;;;;;;;;;;;;18.36;38.26;99036.06;4481217;31;32772;-62
2022/09/18 12:27:03;;;;;;;;;;;;;;;17.48;39.49;99042.69;4458247;31;34645;-62
2022/09/18 12:29:31;;;;;;;;;;;;;;;18.12;37.35;99037.97;4490724;31;33278;-63
2022/09/18 12:32:15;;;;;;;;;;;;;;;17.74;37.14;99037.00;4487217;31;34282;-62
2022/09/18 12:34:43;;;;;;;;;;;;;;;17.88;37.17;99028.16;4489482;31;35514;-62
2022/09/18 12:37:17;;;;;;;;;;;;;;;17.61;37.30;99018.63;4485117;31;33869;-62
2022/09/18 12:39:57;;;;;;;;;;;;;;;17.34;35.45;99024.53;4488735;31;33148;-62
2022/09/18 12:42:34;;;;;;;;;;;;;;;17.48;35.32;99036.47;4474606;31;33956;-62
2022/09/18 12:45:20;;;;;;;;;;;;;;;18.19;35.18;99024.53;4483304;31;33068;-62
2022/09/18 12:48:06;;;;;;;;;;;;;;;18.27;34.02;99024.50;4476199;31;32880;-62
2022/09/18 12:50:42;;;;;;;;;;;;;;;17.96;35.44;99029.12;4471767;31;34382;-62
2022/09/18 12:53:12;;;;;;;;;;;;;;;18.47;36.46;99030.25;4473296;31;33570;-62
2022/09/18 12:55:56;;;;;;;;;;;;;;;18.27;35.20;99024.50;4480835;31;34764;-62
2022/09/18 12:58:35;;;;;;;;;;;;;;;18.50;34.22;99021.75;4475803;32;34404;-63
2022/09/18 13:01:04;;;;;;;;;;;;;;;18.61;35.16;99029.41;4485438;31;33617;-62
2022/09/18 13:03:36;;;;;;;;;;;;;;;18.13;36.24;99020.69;4481414;31;34297;-62
2022/09/18 13:06:16;;;;;;;;;;;;;;;18.18;34.56;99031.00;4471381;31;34173;-62
2022/09/18 13:08:47;;;;;;;;;;;;;;;18.55;33.06;99029.31;4475999;31;33980;-62
2022/09/18 13:11:17;;;;;;;;;;;;;;;18.52;33.37;99024.25;4479937;31;32022;-62